Latest Weather Observations for Nambour

IDQ60901

Issued at 2:21 pm EST Monday 26 January 2015 (issued every 10 minutes, with the page automatically refreshed every 10 minutes)

About weather observations | Map of Brisbane area stations | Latest observations for Brisbane area | Other Formats
Station Details ID: 040988 Name: NAMBOUR DAFF - HILLSIDE Lat: -26.64 Lon: 152.94 Height: 53.24 m
Data from the previous 72 hours. | See also: Recent months at Nambour
Date/Time
EST
Tmp

°C
App
Tmp
°C
Dew
Point
°C
Rel
Hum
%
Delta-T

°C
Wind Press
QNH
hPa
Press
MSL
hPa
Rain
since
9 am
mm
Dir
 
Spd
km/h
Gust
km/h
Spd
kts
Gust
kts
26/02:00pm 28.6 32.4 23.5 74 3.5 ESE 9 17 5 9 1006.0 1005.8 0.0
26/01:30pm 29.5 33.3 23.4 69 4.2 E 9 17 5 9 1005.2 1005.0 0.0
26/01:00pm 30.3 33.9 23.0 65 5.0 E 9 17 5 9 1005.5 1005.3 0.0
26/12:30pm 31.8 35.3 23.6 62 5.7 E 11 20 6 11 1005.9 1005.7 0.0
26/12:00pm 31.3 34.5 22.3 58 6.2 ESE 9 15 5 8 1005.9 1005.7 0.0
26/11:30am 32.3 35.9 23.8 61 5.9 E 11 20 6 11 1006.2 1006.0 0.0
26/11:00am 31.5 35.2 24.6 67 4.9 ENE 13 19 7 10 1006.4 1006.2 0.0
26/10:30am 30.6 35.0 23.8 67 4.7 ESE 7 11 4 6 1006.8 1006.6 0.0
26/10:00am 30.9 35.7 23.5 64 5.1 E 4 9 2 5 1006.9 1006.7 0.0
26/09:30am 30.1 34.7 23.8 69 4.4 ESE 6 11 3 6 1007.0 1006.8 0.0
26/09:00am 29.6 34.2 23.8 71 4.0 ESE 6 9 3 5 1007.0 1006.8 0.0
26/08:30am 29.0 34.1 24.6 77 3.1 ESE 6 11 3 6 1007.1 1006.9 0.0
26/08:00am 27.3 33.2 24.7 86 1.8 ESE 2 6 1 3 1007.1 1006.9 0.0
26/07:30am 26.6 33.1 25.6 94 0.7 WSW 2 6 1 3 1007.2 1007.0 0.0
26/07:00am 25.3 31.5 24.6 96 0.5 CALM 0 0 0 0 1007.3 1007.1 0.0
26/06:30am 25.0 31.1 24.5 97 0.3 CALM 0 0 0 0 1006.7 1006.5 0.0
26/06:00am 24.7 30.7 24.2 97 0.3 CALM 0 0 0 0 1006.3 1006.1 0.0
26/05:30am 24.5 30.3 24.0 97 0.3 CALM 0 0 0 0 1005.8 1005.6 0.0
26/05:00am 24.2 29.8 23.5 96 0.5 CALM 0 4 0 2 1005.3 1005.1 0.0
26/04:30am 24.4 29.7 23.7 96 0.5 SSE 2 4 1 2 1004.9 1004.7 0.0
26/04:00am 24.3 29.9 23.6 96 0.5 CALM 0 0 0 0 1004.9 1004.7 0.0
26/03:30am 24.4 30.1 23.7 96 0.5 CALM 0 0 0 0 1005.0 1004.8 0.0
26/03:00am 24.7 30.5 24.0 96 0.5 CALM 0 0 0 0 1005.1 1004.9 0.0
26/02:30am 25.0 30.3 24.3 96 0.5 S 4 6 2 3 1005.1 1004.9 0.0
26/02:00am 24.6 30.0 23.9 96 0.5 W 2 4 1 2 1005.2 1005.0 0.0
26/01:30am 24.9 30.7 24.0 95 0.6 CALM 0 0 0 0 1005.4 1005.2 0.0
26/01:00am 25.0 30.9 24.1 95 0.6 CALM 0 0 0 0 1005.5 1005.3 0.0
26/12:30am 25.3 31.4 24.4 95 0.6 CALM 0 0 0 0 1006.2 1006.0 0.0
26/12:00am 25.5 31.3 24.6 95 0.6 SE 2 6 1 3 1006.5 1006.3 0.0
 
Date/Time
EST
Tmp

°C
App
Tmp
°C
Dew
Point
°C
Rel
Hum
%
Delta-T

°C
Wind Press
QNH
hPa
Press
MSL
hPa
Rain
since
9 am
mm
Dir
 
Spd
km/h
Gust
km/h
Spd
kts
Gust
kts
25/11:30pm 25.3 31.3 24.3 94 0.7 CALM 0 0 0 0 1006.3 1006.1 0.0
25/11:00pm 25.4 31.5 24.5 95 0.6 CALM 0 0 0 0 1006.3 1006.1 0.0
25/10:30pm 25.5 31.5 24.3 93 0.8 CALM 0 0 0 0 1005.9 1005.7 0.0
25/10:00pm 25.8 32.0 24.6 93 0.8 CALM 0 0 0 0 1006.3 1006.1 0.0
25/09:30pm 26.2 32.5 24.8 92 1.0 CALM 0 0 0 0 1006.1 1005.9 0.0
25/09:00pm 26.3 32.4 24.5 90 1.3 CALM 0 2 0 1 1005.9 1005.7 0.0
25/08:30pm 26.6 32.5 24.1 86 1.7 CALM 0 0 0 0 1005.5 1005.3 0.0
25/08:00pm 27.6 33.3 23.8 80 2.6 CALM 0 2 0 1 1005.5 1005.3 0.0
25/07:30pm 28.1 33.1 23.9 78 2.9 NNW 4 6 2 3 1005.5 1005.3 0.0
25/07:00pm 28.3 33.6 24.3 79 2.8 NE 4 6 2 3 1005.0 1004.8 0.0
25/06:30pm 29.0 33.6 24.1 75 3.4 NE 7 11 4 6 1004.5 1004.2 0.0
25/06:00pm 29.5 34.0 23.9 72 3.9 NE 7 11 4 6 1003.8 1003.5 0.0
25/05:30pm 29.9 33.4 23.6 69 4.4 E 11 15 6 8 1003.4 1003.1 0.0
25/05:00pm 30.6 34.1 23.5 66 4.9 ENE 11 17 6 9 1003.6 1003.3 0.0
25/04:30pm 30.9 34.3 23.3 64 5.2 ENE 11 20 6 11 1002.8 1002.5 0.0
25/04:00pm 31.4 34.9 23.5 63 5.5 ENE 11 15 6 8 1003.1 1002.8 0.0
25/03:30pm 31.4 35.0 23.8 64 5.3 ENE 11 17 6 9 1003.2 1002.9 0.0
25/03:00pm 32.8 37.1 24.3 61 6.0 E 9 17 5 9 1003.2 1002.9 0.0
25/02:30pm 32.3 36.2 24.3 62 5.6 ENE 11 17 6 9 1003.3 1003.0 0.0
25/02:00pm 32.6 36.1 23.5 58 6.3 ENE 11 17 6 9 1003.4 1003.1 0.0
25/01:30pm 32.1 35.2 23.6 60 5.9 E 13 19 7 10 1003.6 1003.3 0.0
25/01:00pm 32.9 35.3 23.0 56 6.9 ENE 15 20 8 11 1003.7 1003.4 0.0
25/12:30pm 34.5 36.4 18.9 39 10.3 WSW 7 15 4 8 1004.0 1003.7 0.0
25/12:00pm 34.1 37.1 20.1 43 9.4 NW 4 9 2 5 1004.3 1004.0 0.0
25/11:30am 33.7 36.7 21.2 48 8.5 NW 7 13 4 7 1004.7 1004.4 0.0
25/11:00am 32.9 35.8 21.1 50 8.0 WNW 7 15 4 8 1005.1 1004.9 0.0
25/10:30am 32.6 36.2 22.4 55 7.0 WNW 7 15 4 8 1005.5 1005.3 0.0
25/10:00am 31.5 33.7 21.9 56 6.5 WNW 13 24 7 13 1005.9 1005.7 0.0
25/09:30am 31.4 35.4 22.1 57 6.3 W 4 9 2 5 1006.2 1006.0 0.0
25/09:00am 29.9 33.4 22.1 63 5.3 NW 7 13 4 7 1006.5 1006.3 0.0
25/08:30am 29.0 32.7 22.2 66 4.6 N 6 9 3 5 1006.8 1006.6 0.0
25/08:00am 27.4 29.7 20.7 67 4.4 N 9 19 5 10 1007.2 1007.0 0.0
25/07:30am 26.4 30.2 21.6 75 3.2 ESE 4 6 2 3 1007.2 1007.0 0.0
25/07:00am 24.7 28.7 20.6 78 2.7 CALM 0 0 0 0 1007.3 1007.1 0.0
25/06:30am 23.9 28.5 21.8 88 1.4 CALM 0 0 0 0 1007.2 1007.0 0.0
25/06:00am 22.3 26.8 21.6 96 0.5 CALM 0 0 0 0 1006.9 1006.7 0.0
25/05:30am 21.6 25.7 20.8 95 0.5 CALM 0 0 0 0 1006.7 1006.5 0.0
25/05:00am 21.6 25.4 20.9 96 0.5 W 2 2 1 1 1006.4 1006.2 0.0
25/04:30am 21.7 25.9 20.9 95 0.5 CALM 0 0 0 0 1006.2 1006.0 0.0
25/04:00am 21.9 26.2 21.1 95 0.5 CALM 0 0 0 0 1006.2 1006.0 0.0
25/03:30am 21.8 26.1 21.1 96 0.5 CALM 0 0 0 0 1006.2 1006.0 0.0
25/03:00am 21.6 25.8 20.9 96 0.5 CALM 0 0 0 0 1006.4 1006.2 0.0
25/02:30am 21.5 25.6 20.8 96 0.5 CALM 0 0 0 0 1006.4 1006.2 0.0
25/02:00am 21.3 25.3 20.6 96 0.5 CALM 0 0 0 0 1006.4 1006.2 0.0
25/01:30am 21.1 25.0 20.4 96 0.5 CALM 0 0 0 0 1006.3 1006.1 0.0
25/01:00am 21.2 25.2 20.5 96 0.5 CALM 0 0 0 0 1006.7 1006.5 0.0
25/12:30am 21.4 25.5 20.7 96 0.5 CALM 0 0 0 0 1006.7 1006.5 0.0
25/12:00am 21.6 25.6 20.6 94 0.6 CALM 0 0 0 0 1007.1 1006.9 0.0
 
Date/Time
EST
Tmp

°C
App
Tmp
°C
Dew
Point
°C
Rel
Hum
%
Delta-T

°C
Wind Press
QNH
hPa
Press
MSL
hPa
Rain
since
9 am
mm
Dir
 
Spd
km/h
Gust
km/h
Spd
kts
Gust
kts
24/11:30pm 21.8 26.0 21.0 95 0.5 CALM 0 0 0 0 1007.4 1007.2 0.0
24/11:00pm 21.8 26.0 21.0 95 0.5 CALM 0 0 0 0 1007.5 1007.3 0.0
24/10:30pm 21.8 25.9 20.8 94 0.7 CALM 0 0 0 0 1007.4 1007.2 0.0
24/10:00pm 22.0 26.2 21.0 94 0.7 CALM 0 0 0 0 1007.4 1007.2 0.0
24/09:30pm 22.3 26.6 21.1 93 0.8 CALM 0 0 0 0 1007.1 1006.9 0.0
24/09:00pm 22.6 27.1 21.6 94 0.7 CALM 0 0 0 0 1006.9 1006.7 0.0
24/08:30pm 23.0 27.5 21.6 92 0.9 CALM 0 0 0 0 1006.7 1006.5 0.0
24/08:00pm 23.5 28.0 21.6 89 1.3 CALM 0 2 0 1 1006.4 1006.2 0.0
24/07:30pm 24.0 28.1 21.5 86 1.7 W 2 4 1 2 1006.3 1006.1 0.0
24/07:00pm 24.9 29.2 21.2 80 2.4 CALM 0 0 0 0 1005.9 1005.7 0.0
24/06:30pm 25.6 29.7 20.8 75 3.2 CALM 0 0 0 0 1005.7 1005.5 0.0
24/06:00pm 26.2 29.5 20.8 72 3.6 ESE 4 7 2 4 1005.4 1005.2 0.0
24/05:30pm 26.7 30.3 21.2 72 3.7 ESE 4 7 2 4 1005.1 1004.9 0.0
24/05:00pm 28.0 31.3 21.5 67 4.4 ESE 6 9 3 5 1005.1 1004.9 0.0
24/04:30pm 27.3 31.1 20.9 68 4.2 ESE 2 9 1 5 1005.1 1004.9 0.0
24/04:00pm 27.2 30.6 21.0 69 4.1 ESE 4 6 2 3 1005.0 1004.8 0.0
24/03:30pm 27.3 30.5 20.4 66 4.5 SE 4 7 2 4 1005.1 1004.9 0.0
24/03:00pm 27.3 30.9 21.3 69 4.0 SE 4 9 2 5 1005.3 1005.1 0.0
24/02:30pm 26.5 30.3 21.7 75 3.2 ESE 4 7 2 4 1005.6 1005.4 0.0
24/02:00pm 26.2 29.5 20.8 72 3.6 ESE 4 9 2 5 1005.9 1005.7 0.0
24/01:30pm 25.2 29.3 21.5 80 2.5 NNW 2 6 1 3 1006.2 1006.0 0.0
24/01:00pm 23.7 26.7 20.8 84 1.9 ESE 6 15 3 8 1006.3 1006.1 0.0
24/12:30pm 26.7 29.3 21.2 72 3.7 SE 9 19 5 10 1006.2 1006.0 0.0
24/12:00pm 26.1 29.7 22.0 78 2.8 SE 6 15 3 8 1006.4 1006.2 0.0
24/11:30am 25.4 28.3 21.1 77 2.8 SSW 7 19 4 10 1006.4 1006.2 0.0
24/11:00am 25.6 28.8 21.3 77 2.9 SSE 6 9 3 5 1006.4 1006.2 0.0
24/10:30am 24.9 28.5 22.0 84 1.9 ENE 6 11 3 6 1006.5 1006.3 0.0
24/10:00am 24.5 27.5 21.2 82 2.2 ESE 7 19 4 10 1006.6 1006.4 0.0
24/09:30am 24.0 27.4 21.7 87 1.5 SSW 6 17 3 9 1006.4 1006.2 0.0
24/09:00am 23.4 27.2 21.7 90 1.1 WSW 4 6 2 3 1006.3 1006.1 93.4
24/08:30am 23.7 27.0 21.4 87 1.5 WSW 6 9 3 5 1005.9 1005.7 93.4
24/08:00am 24.1 27.1 20.8 82 2.2 S 6 17 3 9 1005.5 1005.3 93.4
24/07:30am 23.9 27.0 21.0 84 1.9 SSW 6 15 3 8 1005.4 1005.2 93.4
24/07:00am 23.6 26.3 20.3 82 2.1 SW 6 13 3 7 1005.2 1005.0 93.4
24/06:30am 23.2 25.8 20.0 82 2.1 SSW 6 19 3 10 1004.9 1004.7 93.4
24/06:00am 22.6 25.4 20.5 88 1.4 SW 6 9 3 5 1004.8 1004.6 93.4
24/05:30am 22.1 25.8 20.7 92 0.9 SE 2 4 1 2 1004.8 1004.6 93.4
24/05:00am 21.9 25.9 20.5 92 0.9 CALM 0 6 0 3 1004.6 1004.3 93.4
24/04:30am 21.9 26.0 20.7 93 0.8 CALM 0 4 0 2 1004.5 1004.2 93.4
24/04:00am 21.7 25.3 20.5 93 0.8 SW 2 7 1 4 1003.8 1003.5 93.4
24/03:30am 21.9 26.0 20.7 93 0.8 CALM 0 4 0 2 1003.6 1003.3 93.4
24/03:00am 21.6 25.0 20.2 92 0.9 S 2 6 1 3 1003.4 1003.1 93.2
24/02:30am 21.6 24.4 20.4 93 0.8 WSW 6 13 3 7 1003.5 1003.2 93.2
24/02:00am 21.6 24.5 20.6 94 0.7 SW 6 9 3 5 1004.0 1003.7 93.2
24/01:30am 21.4 24.6 20.6 95 0.5 WSW 4 11 2 6 1004.3 1004.0 93.2
24/01:00am 21.2 24.4 20.4 95 0.5 WSW 4 7 2 4 1004.2 1003.9 93.2
24/12:30am 20.9 23.8 19.9 94 0.6 WSW 4 9 2 5 1004.6 1004.3 93.2
24/12:00am 21.1 24.8 19.9 93 0.8 CALM 0 6 0 3 1005.1 1004.9 93.0
 
Date/Time
EST
Tmp

°C
App
Tmp
°C
Dew
Point
°C
Rel
Hum
%
Delta-T

°C
Wind Press
QNH
hPa
Press
MSL
hPa
Rain
since
9 am
mm
Dir
 
Spd
km/h
Gust
km/h
Spd
kts
Gust
kts
23/11:30pm 21.4 24.1 20.2 93 0.8 SW 6 11 3 6 1005.1 1004.9 93.0
23/11:00pm 21.2 23.9 20.2 94 0.6 SW 6 9 3 5 1005.1 1004.9 93.0
23/10:30pm 21.2 24.0 20.4 95 0.5 WSW 6 13 3 7 1005.5 1005.3 92.8
23/10:00pm 21.4 24.2 20.4 94 0.6 SW 6 13 3 7 1005.5 1005.3 92.2
23/09:30pm 21.3 24.4 20.3 94 0.6 SSW 4 11 2 6 1005.4 1005.2 92.2
23/09:00pm 21.1 24.1 20.1 94 0.6 WNW 4 9 2 5 1005.2 1005.0 92.2
23/08:30pm 21.0 23.9 19.8 93 0.8 WSW 4 19 2 10 1005.5 1005.3 92.2
23/08:00pm 21.0 23.2 19.7 92 0.8 S 7 17 4 9 1005.3 1005.1 92.2
23/07:30pm 21.3 23.8 19.8 91 1.0 SSE 6 15 3 8 1005.3 1005.1 92.2
23/07:00pm 22.0 24.7 20.6 92 0.9 SSW 7 17 4 9 1004.9 1004.7 92.2
23/06:30pm 22.8 26.8 22.0 95 0.5 ESE 4 9 2 5 1004.9 1004.7 92.2
23/06:00pm 22.9 26.9 22.1 95 0.5 SW 4 7 2 4 1004.6 1004.3 92.0
23/05:30pm 23.3 28.3 22.5 95 0.5 CALM 0 2 0 1 1003.8 1003.5 92.0
23/05:00pm 23.3 28.3 22.5 95 0.5 CALM 0 2 0 1 1003.8 1003.5 92.0
23/04:30pm 23.4 28.1 22.6 95 0.5 SW 2 6 1 3 1003.6 1003.3 92.0
23/04:00pm 23.2 27.8 22.5 96 0.5 ENE 2 6 1 3 1003.5 1003.2 92.0
23/03:30pm 23.0 27.1 22.3 96 0.5 E 4 6 2 3 1004.2 1003.9 91.6
23/03:00pm 22.7 27.2 22.2 97 0.3 NNW 2 4 1 2 1004.3 1004.0 91.4
23/02:30pm 22.2 26.3 21.5 96 0.5 WSW 2 6 1 3 1004.4 1004.1 88.4

Latest Capital City Observations: Canberra | Sydney | Melbourne | Brisbane | Adelaide | Perth | Hobart | Darwin

Other Formats:

Comma delimited format used in spreadsheet applications
http://www.bom.gov.au/fwo/IDQ60901/IDQ60901.95572.axf

JavaScript Object Notation format (JSON) in row-major order
http://www.bom.gov.au/fwo/IDQ60901/IDQ60901.95572.json